sensor_id;sensor_type;location;lat;lon;timestamp;temperature;humidity
2158;DHT22;41972;48.774;9.282;2023-06-14T00:01:13;12.90;99.90
2158;DHT22;41972;48.774;9.282;2023-06-14T00:03:39;13.00;99.90
2158;DHT22;41972;48.774;9.282;2023-06-14T00:06:05;13.10;99.90
2158;DHT22;41972;48.774;9.282;2023-06-14T00:08:30;12.90;99.90
2158;DHT22;41972;48.774;9.282;2023-06-14T00:10:56;12.80;99.90
2158;DHT22;41972;48.774;9.282;2023-06-14T00:13:21;12.70;99.90
2158;DHT22;41972;48.774;9.282;2023-06-14T00:15:47;12.70;99.90
2158;DHT22;41972;48.774;9.282;2023-06-14T00:18:13;12.70;99.90
2158;DHT22;41972;48.774;9.282;2023-06-14T00:20:39;12.60;99.90
2158;DHT22;41972;48.774;9.282;2023-06-14T00:23:04;12.60;99.90
2158;DHT22;41972;48.774;9.282;2023-06-14T00:25:30;12.40;99.90
2158;DHT22;41972;48.774;9.282;2023-06-14T00:27:57;12.40;99.90
2158;DHT22;41972;48.774;9.282;2023-06-14T00:30:23;12.30;99.90
2158;DHT22;41972;48.774;9.282;2023-06-14T00:32:48;12.20;99.90
2158;DHT22;41972;48.774;9.282;2023-06-14T00:35:15;12.20;99.90
2158;DHT22;41972;48.774;9.282;2023-06-14T00:37:41;12.10;99.90
2158;DHT22;41972;48.774;9.282;2023-06-14T00:40:07;12.10;99.90
2158;DHT22;41972;48.774;9.282;2023-06-14T00:42:33;12.10;99.90
2158;DHT22;41972;48.774;9.282;2023-06-14T00:44:59;12.00;99.90
2158;DHT22;41972;48.774;9.282;2023-06-14T00:47:25;11.90;99.90
2158;DHT22;41972;48.774;9.282;2023-06-14T00:49:53;11.70;99.90
2158;DHT22;41972;48.774;9.282;2023-06-14T00:52:19;11.60;99.90
2158;DHT22;41972;48.774;9.282;2023-06-14T00:54:46;11.60;99.90
2158;DHT22;41972;48.774;9.282;2023-06-14T00:57:12;11.70;99.90
2158;DHT22;41972;48.774;9.282;2023-06-14T00:59:43;11.60;99.90
2158;DHT22;41972;48.774;9.282;2023-06-14T01:02:09;11.50;99.90
2158;DHT22;41972;48.774;9.282;2023-06-14T01:04:35;11.60;99.90
2158;DHT22;41972;48.774;9.282;2023-06-14T01:07:23;11.50;99.90
2158;DHT22;41972;48.774;9.282;2023-06-14T01:12:39;11.30;99.90
2158;DHT22;41972;48.774;9.282;2023-06-14T01:15:10;11.20;99.90
2158;DHT22;41972;48.774;9.282;2023-06-14T01:17:38;11.10;99.90
2158;DHT22;41972;48.774;9.282;2023-06-14T01:20:11;11.20;99.90
2158;DHT22;41972;48.774;9.282;2023-06-14T01:22:51;11.20;99.90
2158;DHT22;41972;48.774;9.282;2023-06-14T01:25:17;11.20;99.90
2158;DHT22;41972;48.774;9.282;2023-06-14T01:27:47;11.10;99.90
2158;DHT22;41972;48.774;9.282;2023-06-14T01:30:14;10.90;99.90
2158;DHT22;41972;48.774;9.282;2023-06-14T01:32:40;11.10;99.90
2158;DHT22;41972;48.774;9.282;2023-06-14T01:35:06;11.10;99.90
2158;DHT22;41972;48.774;9.282;2023-06-14T01:37:32;11.30;99.90
2158;DHT22;41972;48.774;9.282;2023-06-14T01:39:58;11.20;99.90
2158;DHT22;41972;48.774;9.282;2023-06-14T01:42:24;11.00;99.90
2158;DHT22;41972;48.774;9.282;2023-06-14T01:44:51;10.80;99.90
2158;DHT22;41972;48.774;9.282;2023-06-14T01:47:19;10.70;99.90
2158;DHT22;41972;48.774;9.282;2023-06-14T01:49:46;10.70;99.90
2158;DHT22;41972;48.774;9.282;2023-06-14T01:52:12;11.00;99.90
2158;DHT22;41972;48.774;9.282;2023-06-14T01:54:38;11.20;99.90
2158;DHT22;41972;48.774;9.282;2023-06-14T01:57:08;11.40;99.90
2158;DHT22;41972;48.774;9.282;2023-06-14T01:59:34;11.00;99.90
2158;DHT22;41972;48.774;9.282;2023-06-14T02:02:02;10.80;99.90
2158;DHT22;41972;48.774;9.282;2023-06-14T02:04:27;10.80;99.90
2158;DHT22;41972;48.774;9.282;2023-06-14T02:06:53;10.70;99.90
2158;DHT22;41972;48.774;9.282;2023-06-14T02:09:18;10.60;99.90
2158;DHT22;41972;48.774;9.282;2023-06-14T02:11:44;10.60;99.90
2158;DHT22;41972;48.774;9.282;2023-06-14T02:14:10;10.60;99.90
2158;DHT22;41972;48.774;9.282;2023-06-14T02:16:37;10.60;99.90
2158;DHT22;41972;48.774;9.282;2023-06-14T02:19:04;10.40;99.90
2158;DHT22;41972;48.774;9.282;2023-06-14T02:21:30;10.40;99.90
2158;DHT22;41972;48.774;9.282;2023-06-14T02:23:55;10.40;99.90
2158;DHT22;41972;48.774;9.282;2023-06-14T02:26:21;10.40;99.90
2158;DHT22;41972;48.774;9.282;2023-06-14T02:28:48;10.50;99.90
2158;DHT22;41972;48.774;9.282;2023-06-14T02:31:13;10.50;99.90
2158;DHT22;41972;48.774;9.282;2023-06-14T02:33:40;10.60;99.90
2158;DHT22;41972;48.774;9.282;2023-06-14T02:36:06;10.40;99.90
2158;DHT22;41972;48.774;9.282;2023-06-14T02:38:31;10.40;99.90
2158;DHT22;41972;48.774;9.282;2023-06-14T02:40:57;10.40;99.90
2158;DHT22;41972;48.774;9.282;2023-06-14T02:43:24;10.30;99.90
2158;DHT22;41972;48.774;9.282;2023-06-14T02:45:50;10.20;99.90
2158;DHT22;41972;48.774;9.282;2023-06-14T02:48:16;10.30;99.90
2158;DHT22;41972;48.774;9.282;2023-06-14T02:50:41;10.20;99.90
2158;DHT22;41972;48.774;9.282;2023-06-14T02:53:07;10.10;99.90
2158;DHT22;41972;48.774;9.282;2023-06-14T02:55:33;10.10;99.90
2158;DHT22;41972;48.774;9.282;2023-06-14T02:57:59;10.10;99.90
2158;DHT22;41972;48.774;9.282;2023-06-14T03:00:24;10.00;99.90
2158;DHT22;41972;48.774;9.282;2023-06-14T03:02:50;10.00;99.90
2158;DHT22;41972;48.774;9.282;2023-06-14T03:05:16;10.10;99.90
2158;DHT22;41972;48.774;9.282;2023-06-14T03:07:46;10.00;99.90
2158;DHT22;41972;48.774;9.282;2023-06-14T03:10:12;10.00;99.90
2158;DHT22;41972;48.774;9.282;2023-06-14T03:12:39;10.00;99.90
2158;DHT22;41972;48.774;9.282;2023-06-14T03:15:05;9.90;99.90
2158;DHT22;41972;48.774;9.282;2023-06-14T03:17:30;10.00;99.90
2158;DHT22;41972;48.774;9.282;2023-06-14T03:19:59;10.20;99.90
2158;DHT22;41972;48.774;9.282;2023-06-14T03:22:25;10.10;99.90
2158;DHT22;41972;48.774;9.282;2023-06-14T03:24:51;10.10;99.90
2158;DHT22;41972;48.774;9.282;2023-06-14T03:27:17;9.90;99.90
2158;DHT22;41972;48.774;9.282;2023-06-14T03:29:43;9.90;99.90
2158;DHT22;41972;48.774;9.282;2023-06-14T03:32:09;9.90;99.90
2158;DHT22;41972;48.774;9.282;2023-06-14T03:34:35;10.00;99.90
2158;DHT22;41972;48.774;9.282;2023-06-14T03:37:01;10.20;99.90
2158;DHT22;41972;48.774;9.282;2023-06-14T03:39:26;10.10;99.90
2158;DHT22;41972;48.774;9.282;2023-06-14T03:41:52;10.10;99.90
2158;DHT22;41972;48.774;9.282;2023-06-14T03:44:18;10.10;99.90
2158;DHT22;41972;48.774;9.282;2023-06-14T03:46:44;10.30;99.90
2158;DHT22;41972;48.774;9.282;2023-06-14T03:49:11;10.30;99.90
2158;DHT22;41972;48.774;9.282;2023-06-14T03:51:37;10.20;99.90
2158;DHT22;41972;48.774;9.282;2023-06-14T03:54:02;10.10;99.90
2158;DHT22;41972;48.774;9.282;2023-06-14T03:56:28;10.10;99.90
2158;DHT22;41972;48.774;9.282;2023-06-14T03:58:53;10.20;99.90
2158;DHT22;41972;48.774;9.282;2023-06-14T04:01:19;10.20;99.90
2158;DHT22;41972;48.774;9.282;2023-06-14T04:03:45;10.20;99.90
2158;DHT22;41972;48.774;9.282;2023-06-14T04:06:11;10.40;99.90
2158;DHT22;41972;48.774;9.282;2023-06-14T04:08:36;10.50;99.90
2158;DHT22;41972;48.774;9.282;2023-06-14T04:11:05;10.40;99.90
2158;DHT22;41972;48.774;9.282;2023-06-14T04:13:30;10.50;99.90
2158;DHT22;41972;48.774;9.282;2023-06-14T04:15:56;10.70;99.90
2158;DHT22;41972;48.774;9.282;2023-06-14T04:18:22;11.60;99.90
2158;DHT22;41972;48.774;9.282;2023-06-14T04:20:49;13.70;99.90
2158;DHT22;41972;48.774;9.282;2023-06-14T04:23:16;14.60;99.90
2158;DHT22;41972;48.774;9.282;2023-06-14T04:25:43;15.70;99.90
2158;DHT22;41972;48.774;9.282;2023-06-14T04:28:11;16.10;99.90
2158;DHT22;41972;48.774;9.282;2023-06-14T04:30:37;15.20;99.90
2158;DHT22;41972;48.774;9.282;2023-06-14T04:33:04;15.70;99.90
2158;DHT22;41972;48.774;9.282;2023-06-14T04:35:31;15.60;99.90
2158;DHT22;41972;48.774;9.282;2023-06-14T04:37:58;17.50;99.90
2158;DHT22;41972;48.774;9.282;2023-06-14T04:40:24;19.00;99.90
2158;DHT22;41972;48.774;9.282;2023-06-14T04:42:50;18.30;99.90
2158;DHT22;41972;48.774;9.282;2023-06-14T04:45:16;20.30;99.90
2158;DHT22;41972;48.774;9.282;2023-06-14T04:47:42;22.10;99.90
2158;DHT22;41972;48.774;9.282;2023-06-14T04:50:09;22.20;99.90
2158;DHT22;41972;48.774;9.282;2023-06-14T04:52:36;20.30;99.90
2158;DHT22;41972;48.774;9.282;2023-06-14T04:55:02;19.90;99.90
2158;DHT22;41972;48.774;9.282;2023-06-14T04:57:28;18.40;99.90
2158;DHT22;41972;48.774;9.282;2023-06-14T04:59:54;17.50;99.90
2158;DHT22;41972;48.774;9.282;2023-06-14T05:02:23;20.10;99.90
2158;DHT22;41972;48.774;9.282;2023-06-14T05:04:50;21.20;99.90
2158;DHT22;41972;48.774;9.282;2023-06-14T05:07:16;21.10;99.90
2158;DHT22;41972;48.774;9.282;2023-06-14T05:09:42;21.00;99.90
2158;DHT22;41972;48.774;9.282;2023-06-14T05:12:07;20.10;99.90
2158;DHT22;41972;48.774;9.282;2023-06-14T05:14:34;21.70;99.90
2158;DHT22;41972;48.774;9.282;2023-06-14T05:17:00;22.70;99.90
2158;DHT22;41972;48.774;9.282;2023-06-14T05:19:25;21.30;99.90
2158;DHT22;41972;48.774;9.282;2023-06-14T05:21:52;22.20;99.90
2158;DHT22;41972;48.774;9.282;2023-06-14T05:24:18;22.90;99.90
2158;DHT22;41972;48.774;9.282;2023-06-14T05:26:44;22.20;99.90
2158;DHT22;41972;48.774;9.282;2023-06-14T05:29:09;22.40;99.90
2158;DHT22;41972;48.774;9.282;2023-06-14T05:31:35;21.60;99.90
2158;DHT22;41972;48.774;9.282;2023-06-14T05:34:01;22.50;99.90
2158;DHT22;41972;48.774;9.282;2023-06-14T05:36:26;24.20;99.90
2158;DHT22;41972;48.774;9.282;2023-06-14T05:38:53;23.30;99.90
2158;DHT22;41972;48.774;9.282;2023-06-14T05:41:26;24.80;99.90
2158;DHT22;41972;48.774;9.282;2023-06-14T05:43:52;24.30;99.90
2158;DHT22;41972;48.774;9.282;2023-06-14T05:46:18;22.90;99.90
2158;DHT22;41972;48.774;9.282;2023-06-14T05:48:48;22.20;99.90
2158;DHT22;41972;48.774;9.282;2023-06-14T05:51:13;20.70;99.90
2158;DHT22;41972;48.774;9.282;2023-06-14T05:53:40;19.80;99.90
2158;DHT22;41972;48.774;9.282;2023-06-14T05:56:05;19.60;99.90
2158;DHT22;41972;48.774;9.282;2023-06-14T05:58:31;20.10;99.90
2158;DHT22;41972;48.774;9.282;2023-06-14T06:00:56;21.30;99.90
2158;DHT22;41972;48.774;9.282;2023-06-14T06:03:23;22.50;99.90
2158;DHT22;41972;48.774;9.282;2023-06-14T06:05:48;23.50;99.90
2158;DHT22;41972;48.774;9.282;2023-06-14T06:08:14;24.00;99.90
2158;DHT22;41972;48.774;9.282;2023-06-14T06:10:40;24.50;99.90
2158;DHT22;41972;48.774;9.282;2023-06-14T06:13:05;23.30;99.90
2158;DHT22;41972;48.774;9.282;2023-06-14T06:15:31;23.70;99.90
2158;DHT22;41972;48.774;9.282;2023-06-14T06:17:56;24.00;99.90
2158;DHT22;41972;48.774;9.282;2023-06-14T06:20:23;23.00;99.90
2158;DHT22;41972;48.774;9.282;2023-06-14T06:22:54;22.80;99.90
2158;DHT22;41972;48.774;9.282;2023-06-14T06:25:19;22.80;99.90
2158;DHT22;41972;48.774;9.282;2023-06-14T06:27:45;23.40;99.90
2158;DHT22;41972;48.774;9.282;2023-06-14T06:30:11;24.80;99.90
2158;DHT22;41972;48.774;9.282;2023-06-14T06:32:37;25.20;99.90
2158;DHT22;41972;48.774;9.282;2023-06-14T06:35:03;24.80;99.90
2158;DHT22;41972;48.774;9.282;2023-06-14T06:37:32;25.00;99.90
2158;DHT22;41972;48.774;9.282;2023-06-14T06:39:58;25.90;99.90
2158;DHT22;41972;48.774;9.282;2023-06-14T06:42:23;25.70;99.90
2158;DHT22;41972;48.774;9.282;2023-06-14T06:44:49;27.20;99.90
2158;DHT22;41972;48.774;9.282;2023-06-14T06:47:15;27.10;99.90
2158;DHT22;41972;48.774;9.282;2023-06-14T06:49:41;26.90;99.90
2158;DHT22;41972;48.774;9.282;2023-06-14T06:52:07;28.00;99.90
2158;DHT22;41972;48.774;9.282;2023-06-14T06:54:33;24.40;99.90
2158;DHT22;41972;48.774;9.282;2023-06-14T06:56:59;22.60;99.90
2158;DHT22;41972;48.774;9.282;2023-06-14T06:59:26;24.40;99.90
2158;DHT22;41972;48.774;9.282;2023-06-14T07:01:52;27.70;99.90
2158;DHT22;41972;48.774;9.282;2023-06-14T07:04:18;28.50;99.90
2158;DHT22;41972;48.774;9.282;2023-06-14T07:06:44;28.00;99.90
2158;DHT22;41972;48.774;9.282;2023-06-14T07:09:09;25.90;99.90
2158;DHT22;41972;48.774;9.282;2023-06-14T07:11:39;27.10;99.90
2158;DHT22;41972;48.774;9.282;2023-06-14T07:14:05;27.70;99.90
2158;DHT22;41972;48.774;9.282;2023-06-14T07:16:31;26.10;99.90
2158;DHT22;41972;48.774;9.282;2023-06-14T07:18:57;27.00;99.90
2158;DHT22;41972;48.774;9.282;2023-06-14T07:21:22;26.10;99.90
2158;DHT22;41972;48.774;9.282;2023-06-14T07:23:48;25.10;99.90
2158;DHT22;41972;48.774;9.282;2023-06-14T07:26:14;27.50;99.90
2158;DHT22;41972;48.774;9.282;2023-06-14T07:28:39;29.20;99.90
2158;DHT22;41972;48.774;9.282;2023-06-14T07:31:05;27.50;99.90
2158;DHT22;41972;48.774;9.282;2023-06-14T07:33:32;28.00;99.90
2158;DHT22;41972;48.774;9.282;2023-06-14T07:35:57;25.30;99.90
2158;DHT22;41972;48.774;9.282;2023-06-14T07:38:23;25.40;99.90
2158;DHT22;41972;48.774;9.282;2023-06-14T07:40:48;27.60;99.90
2158;DHT22;41972;48.774;9.282;2023-06-14T07:43:14;27.60;99.90
2158;DHT22;41972;48.774;9.282;2023-06-14T07:45:40;27.70;99.90
2158;DHT22;41972;48.774;9.282;2023-06-14T07:48:05;27.70;99.90
2158;DHT22;41972;48.774;9.282;2023-06-14T07:50:31;29.90;99.90
2158;DHT22;41972;48.774;9.282;2023-06-14T07:52:57;28.60;99.90
2158;DHT22;41972;48.774;9.282;2023-06-14T07:55:22;27.20;99.90
2158;DHT22;41972;48.774;9.282;2023-06-14T07:57:48;27.40;99.90
2158;DHT22;41972;48.774;9.282;2023-06-14T08:00:13;29.20;99.90
2158;DHT22;41972;48.774;9.282;2023-06-14T08:02:43;28.60;99.90
2158;DHT22;41972;48.774;9.282;2023-06-14T08:05:10;28.70;99.90
2158;DHT22;41972;48.774;9.282;2023-06-14T08:07:39;29.50;99.90
2158;DHT22;41972;48.774;9.282;2023-06-14T08:10:06;28.20;99.90
2158;DHT22;41972;48.774;9.282;2023-06-14T08:12:33;27.30;99.90
2158;DHT22;41972;48.774;9.282;2023-06-14T08:14:59;28.00;99.90
2158;DHT22;41972;48.774;9.282;2023-06-14T08:17:25;30.00;99.90
2158;DHT22;41972;48.774;9.282;2023-06-14T08:19:50;28.00;99.90
2158;DHT22;41972;48.774;9.282;2023-06-14T08:22:16;28.00;99.90
2158;DHT22;41972;48.774;9.282;2023-06-14T08:24:43;30.60;99.90
2158;DHT22;41972;48.774;9.282;2023-06-14T08:27:10;32.00;99.90
2158;DHT22;41972;48.774;9.282;2023-06-14T08:29:35;33.20;99.90
2158;DHT22;41972;48.774;9.282;2023-06-14T08:32:01;31.40;99.90
2158;DHT22;41972;48.774;9.282;2023-06-14T08:34:27;30.50;99.90
2158;DHT22;41972;48.774;9.282;2023-06-14T08:36:53;29.00;99.90
2158;DHT22;41972;48.774;9.282;2023-06-14T08:39:18;30.20;99.90
2158;DHT22;41972;48.774;9.282;2023-06-14T08:41:46;29.20;99.90
2158;DHT22;41972;48.774;9.282;2023-06-14T08:44:15;27.60;99.90
2158;DHT22;41972;48.774;9.282;2023-06-14T08:46:41;27.10;99.90
2158;DHT22;41972;48.774;9.282;2023-06-14T08:49:08;27.20;99.90
2158;DHT22;41972;48.774;9.282;2023-06-14T08:51:37;28.00;99.90
2158;DHT22;41972;48.774;9.282;2023-06-14T08:54:03;27.80;99.90
2158;DHT22;41972;48.774;9.282;2023-06-14T08:56:30;25.30;99.90
2158;DHT22;41972;48.774;9.282;2023-06-14T08:58:59;27.40;99.90
2158;DHT22;41972;48.774;9.282;2023-06-14T09:01:34;30.30;99.90
2158;DHT22;41972;48.774;9.282;2023-06-14T09:04:00;29.90;99.90
2158;DHT22;41972;48.774;9.282;2023-06-14T09:06:27;28.60;99.90
2158;DHT22;41972;48.774;9.282;2023-06-14T09:08:55;29.60;99.90
2158;DHT22;41972;48.774;9.282;2023-06-14T09:11:24;29.60;99.90
2158;DHT22;41972;48.774;9.282;2023-06-14T09:13:51;28.60;99.90
2158;DHT22;41972;48.774;9.282;2023-06-14T09:16:17;29.10;99.90
2158;DHT22;41972;48.774;9.282;2023-06-14T09:18:44;31.70;99.90
2158;DHT22;41972;48.774;9.282;2023-06-14T09:21:13;31.80;99.90
2158;DHT22;41972;48.774;9.282;2023-06-14T09:23:43;30.60;99.90
2158;DHT22;41972;48.774;9.282;2023-06-14T09:28:45;30.90;99.90
2158;DHT22;41972;48.774;9.282;2023-06-14T09:31:16;29.30;99.90
2158;DHT22;41972;48.774;9.282;2023-06-14T09:33:43;28.00;99.90
2158;DHT22;41972;48.774;9.282;2023-06-14T09:36:20;29.90;99.90
2158;DHT22;41972;48.774;9.282;2023-06-14T09:39:00;33.60;99.90
2158;DHT22;41972;48.774;9.282;2023-06-14T09:41:35;32.40;99.90
2158;DHT22;41972;48.774;9.282;2023-06-14T09:44:02;30.30;99.90
2158;DHT22;41972;48.774;9.282;2023-06-14T09:46:29;28.40;99.90
2158;DHT22;41972;48.774;9.282;2023-06-14T09:48:56;27.30;99.90
2158;DHT22;41972;48.774;9.282;2023-06-14T09:51:25;27.40;99.90
2158;DHT22;41972;48.774;9.282;2023-06-14T09:53:52;31.70;99.90
2158;DHT22;41972;48.774;9.282;2023-06-14T09:56:29;34.40;99.90
2158;DHT22;41972;48.774;9.282;2023-06-14T09:58:56;31.50;99.90
2158;DHT22;41972;48.774;9.282;2023-06-14T10:01:26;30.70;99.90
2158;DHT22;41972;48.774;9.282;2023-06-14T10:03:55;30.40;99.90
2158;DHT22;41972;48.774;9.282;2023-06-14T10:06:24;31.20;99.90
2158;DHT22;41972;48.774;9.282;2023-06-14T10:08:52;28.20;99.90
2158;DHT22;41972;48.774;9.282;2023-06-14T10:11:21;28.60;99.90
2158;DHT22;41972;48.774;9.282;2023-06-14T10:13:47;29.90;99.90
2158;DHT22;41972;48.774;9.282;2023-06-14T10:16:19;30.50;99.90
2158;DHT22;41972;48.774;9.282;2023-06-14T10:21:32;29.30;99.90
2158;DHT22;41972;48.774;9.282;2023-06-14T10:24:03;27.60;99.90
2158;DHT22;41972;48.774;9.282;2023-06-14T10:26:29;26.50;99.90
2158;DHT22;41972;48.774;9.282;2023-06-14T10:28:58;25.80;99.90
2158;DHT22;41972;48.774;9.282;2023-06-14T10:31:43;27.50;99.90
2158;DHT22;41972;48.774;9.282;2023-06-14T10:34:10;29.60;99.90
2158;DHT22;41972;48.774;9.282;2023-06-14T10:36:37;31.40;99.90
2158;DHT22;41972;48.774;9.282;2023-06-14T10:39:10;30.60;99.90
2158;DHT22;41972;48.774;9.282;2023-06-14T10:41:37;31.20;99.90
2158;DHT22;41972;48.774;9.282;2023-06-14T10:46:55;31.60;99.90
2158;DHT22;41972;48.774;9.282;2023-06-14T10:49:37;29.40;99.90
2158;DHT22;41972;48.774;9.282;2023-06-14T10:52:08;27.70;99.90
2158;DHT22;41972;48.774;9.282;2023-06-14T10:54:37;27.00;99.90
2158;DHT22;41972;48.774;9.282;2023-06-14T10:57:06;27.80;99.90
2158;DHT22;41972;48.774;9.282;2023-06-14T10:59:32;31.30;99.90
2158;DHT22;41972;48.774;9.282;2023-06-14T11:05:24;28.60;99.90
2158;DHT22;41972;48.774;9.282;2023-06-14T11:08:20;27.50;99.90
2158;DHT22;41972;48.774;9.282;2023-06-14T11:10:50;25.70;99.90
2158;DHT22;41972;48.774;9.282;2023-06-14T11:13:16;25.30;99.90
2158;DHT22;41972;48.774;9.282;2023-06-14T11:15:47;24.30;99.90
2158;DHT22;41972;48.774;9.282;2023-06-14T11:18:13;25.10;99.90
2158;DHT22;41972;48.774;9.282;2023-06-14T11:20:40;25.20;99.90
2158;DHT22;41972;48.774;9.282;2023-06-14T11:23:06;25.70;99.90
2158;DHT22;41972;48.774;9.282;2023-06-14T11:25:32;26.50;99.90
2158;DHT22;41972;48.774;9.282;2023-06-14T11:27:58;25.90;99.90
2158;DHT22;41972;48.774;9.282;2023-06-14T11:30:24;25.50;99.90
2158;DHT22;41972;48.774;9.282;2023-06-14T11:32:54;25.30;99.90
2158;DHT22;41972;48.774;9.282;2023-06-14T11:35:23;25.50;99.90
2158;DHT22;41972;48.774;9.282;2023-06-14T11:37:53;24.90;99.90
2158;DHT22;41972;48.774;9.282;2023-06-14T11:40:26;24.30;99.90
2158;DHT22;41972;48.774;9.282;2023-06-14T11:43:02;24.30;99.90
2158;DHT22;41972;48.774;9.282;2023-06-14T11:45:30;24.40;99.90
2158;DHT22;41972;48.774;9.282;2023-06-14T11:47:58;24.40;99.90
2158;DHT22;41972;48.774;9.282;2023-06-14T11:50:25;24.10;99.90
2158;DHT22;41972;48.774;9.282;2023-06-14T11:52:54;24.00;99.90
2158;DHT22;41972;48.774;9.282;2023-06-14T11:55:21;24.40;99.90
2158;DHT22;41972;48.774;9.282;2023-06-14T11:57:48;23.80;99.90
2158;DHT22;41972;48.774;9.282;2023-06-14T12:00:15;24.50;99.90
2158;DHT22;41972;48.774;9.282;2023-06-14T12:02:42;25.40;99.90
2158;DHT22;41972;48.774;9.282;2023-06-14T12:05:08;25.20;99.90
2158;DHT22;41972;48.774;9.282;2023-06-14T12:07:36;25.40;99.90
2158;DHT22;41972;48.774;9.282;2023-06-14T12:12:36;23.90;99.90
2158;DHT22;41972;48.774;9.282;2023-06-14T12:15:06;24.60;99.90
2158;DHT22;41972;48.774;9.282;2023-06-14T12:17:34;25.60;99.90
2158;DHT22;41972;48.774;9.282;2023-06-14T12:20:28;26.10;99.90
2158;DHT22;41972;48.774;9.282;2023-06-14T12:22:55;26.20;99.90
2158;DHT22;41972;48.774;9.282;2023-06-14T12:25:34;25.90;99.90
2158;DHT22;41972;48.774;9.282;2023-06-14T12:28:05;25.10;99.90
2158;DHT22;41972;48.774;9.282;2023-06-14T12:30:32;25.30;99.90
2158;DHT22;41972;48.774;9.282;2023-06-14T12:32:57;25.60;99.90
2158;DHT22;41972;48.774;9.282;2023-06-14T12:35:23;25.30;99.90
2158;DHT22;41972;48.774;9.282;2023-06-14T12:37:48;25.10;99.90
2158;DHT22;41972;48.774;9.282;2023-06-14T12:40:14;25.00;99.90
2158;DHT22;41972;48.774;9.282;2023-06-14T12:42:44;24.60;99.90
2158;DHT22;41972;48.774;9.282;2023-06-14T12:45:10;24.60;99.90
2158;DHT22;41972;48.774;9.282;2023-06-14T12:47:36;23.50;99.90
2158;DHT22;41972;48.774;9.282;2023-06-14T12:50:01;23.60;99.90
2158;DHT22;41972;48.774;9.282;2023-06-14T12:52:27;23.50;99.90
2158;DHT22;41972;48.774;9.282;2023-06-14T12:54:53;23.50;99.90
2158;DHT22;41972;48.774;9.282;2023-06-14T12:57:18;23.90;99.90
2158;DHT22;41972;48.774;9.282;2023-06-14T12:59:44;24.10;99.90
2158;DHT22;41972;48.774;9.282;2023-06-14T13:04:39;24.80;99.90
2158;DHT22;41972;48.774;9.282;2023-06-14T13:07:05;24.70;99.90
2158;DHT22;41972;48.774;9.282;2023-06-14T13:09:30;24.80;99.90
2158;DHT22;41972;48.774;9.282;2023-06-14T13:11:56;24.80;99.90
2158;DHT22;41972;48.774;9.282;2023-06-14T13:14:22;24.40;99.90
2158;DHT22;41972;48.774;9.282;2023-06-14T13:16:48;24.50;99.90
2158;DHT22;41972;48.774;9.282;2023-06-14T13:19:13;24.40;99.90
2158;DHT22;41972;48.774;9.282;2023-06-14T13:21:39;24.50;99.90
2158;DHT22;41972;48.774;9.282;2023-06-14T13:24:05;24.00;99.90
2158;DHT22;41972;48.774;9.282;2023-06-14T13:26:30;24.40;99.90
2158;DHT22;41972;48.774;9.282;2023-06-14T13:28:56;24.30;99.90
2158;DHT22;41972;48.774;9.282;2023-06-14T13:31:21;24.50;99.90
2158;DHT22;41972;48.774;9.282;2023-06-14T13:33:47;23.80;99.90
2158;DHT22;41972;48.774;9.282;2023-06-14T13:36:13;23.60;99.90
2158;DHT22;41972;48.774;9.282;2023-06-14T13:38:38;23.40;99.90
2158;DHT22;41972;48.774;9.282;2023-06-14T13:41:04;23.60;99.90
2158;DHT22;41972;48.774;9.282;2023-06-14T13:43:30;23.90;99.90
2158;DHT22;41972;48.774;9.282;2023-06-14T13:45:56;24.00;99.90
2158;DHT22;41972;48.774;9.282;2023-06-14T13:48:21;24.60;99.90
2158;DHT22;41972;48.774;9.282;2023-06-14T13:50:47;24.90;99.90
2158;DHT22;41972;48.774;9.282;2023-06-14T13:53:14;24.70;99.90
2158;DHT22;41972;48.774;9.282;2023-06-14T13:55:39;23.90;99.90
2158;DHT22;41972;48.774;9.282;2023-06-14T13:58:05;24.00;99.90
2158;DHT22;41972;48.774;9.282;2023-06-14T14:00:31;23.80;99.90
2158;DHT22;41972;48.774;9.282;2023-06-14T14:02:57;23.40;99.90
2158;DHT22;41972;48.774;9.282;2023-06-14T14:05:26;23.60;99.90
2158;DHT22;41972;48.774;9.282;2023-06-14T14:07:55;23.40;99.90
2158;DHT22;41972;48.774;9.282;2023-06-14T14:10:22;23.70;99.90
2158;DHT22;41972;48.774;9.282;2023-06-14T14:12:48;23.70;99.90
2158;DHT22;41972;48.774;9.282;2023-06-14T14:15:14;23.70;99.90
2158;DHT22;41972;48.774;9.282;2023-06-14T14:17:40;23.70;99.90
2158;DHT22;41972;48.774;9.282;2023-06-14T14:20:07;23.30;99.90
2158;DHT22;41972;48.774;9.282;2023-06-14T14:22:32;23.30;99.90
2158;DHT22;41972;48.774;9.282;2023-06-14T14:24:58;23.50;99.90
2158;DHT22;41972;48.774;9.282;2023-06-14T14:27:23;23.70;99.90
2158;DHT22;41972;48.774;9.282;2023-06-14T14:29:49;23.90;99.90
2158;DHT22;41972;48.774;9.282;2023-06-14T14:32:16;24.30;99.90
2158;DHT22;41972;48.774;9.282;2023-06-14T14:34:42;24.70;99.90
2158;DHT22;41972;48.774;9.282;2023-06-14T14:37:07;24.80;99.90
2158;DHT22;41972;48.774;9.282;2023-06-14T14:39:33;25.10;99.90
2158;DHT22;41972;48.774;9.282;2023-06-14T14:41:58;24.70;99.90
2158;DHT22;41972;48.774;9.282;2023-06-14T14:44:24;24.90;99.90
2158;DHT22;41972;48.774;9.282;2023-06-14T14:46:49;24.70;99.90
2158;DHT22;41972;48.774;9.282;2023-06-14T14:49:15;25.10;99.90
2158;DHT22;41972;48.774;9.282;2023-06-14T14:51:41;25.30;99.90
2158;DHT22;41972;48.774;9.282;2023-06-14T14:54:06;25.30;99.90
2158;DHT22;41972;48.774;9.282;2023-06-14T14:56:32;24.80;99.90
2158;DHT22;41972;48.774;9.282;2023-06-14T14:58:57;24.70;99.90
2158;DHT22;41972;48.774;9.282;2023-06-14T15:01:23;24.60;99.90
2158;DHT22;41972;48.774;9.282;2023-06-14T15:03:49;24.00;99.90
2158;DHT22;41972;48.774;9.282;2023-06-14T15:06:14;24.00;99.90
2158;DHT22;41972;48.774;9.282;2023-06-14T15:08:40;23.50;99.90
2158;DHT22;41972;48.774;9.282;2023-06-14T15:11:06;23.70;99.90
2158;DHT22;41972;48.774;9.282;2023-06-14T15:13:32;23.20;99.90
2158;DHT22;41972;48.774;9.282;2023-06-14T15:15:57;23.10;99.90
2158;DHT22;41972;48.774;9.282;2023-06-14T15:18:23;23.00;99.90
2158;DHT22;41972;48.774;9.282;2023-06-14T15:20:49;23.00;99.90
2158;DHT22;41972;48.774;9.282;2023-06-14T15:23:15;23.00;99.90
2158;DHT22;41972;48.774;9.282;2023-06-14T15:25:45;23.20;99.90
2158;DHT22;41972;48.774;9.282;2023-06-14T15:28:14;23.50;99.90
2158;DHT22;41972;48.774;9.282;2023-06-14T15:30:40;23.90;99.90
2158;DHT22;41972;48.774;9.282;2023-06-14T15:33:06;24.10;99.90
2158;DHT22;41972;48.774;9.282;2023-06-14T15:35:31;24.30;99.90
2158;DHT22;41972;48.774;9.282;2023-06-14T15:37:57;24.40;99.90
2158;DHT22;41972;48.774;9.282;2023-06-14T15:40:23;24.20;99.90
2158;DHT22;41972;48.774;9.282;2023-06-14T15:42:48;24.20;99.90
2158;DHT22;41972;48.774;9.282;2023-06-14T15:45:14;24.00;99.90
2158;DHT22;41972;48.774;9.282;2023-06-14T15:47:39;23.90;99.90
2158;DHT22;41972;48.774;9.282;2023-06-14T15:50:05;24.00;99.90
2158;DHT22;41972;48.774;9.282;2023-06-14T15:52:33;23.80;99.90
2158;DHT22;41972;48.774;9.282;2023-06-14T15:54:59;23.70;99.90
2158;DHT22;41972;48.774;9.282;2023-06-14T15:57:25;23.70;99.90
2158;DHT22;41972;48.774;9.282;2023-06-14T15:59:51;23.40;99.90
2158;DHT22;41972;48.774;9.282;2023-06-14T16:02:16;23.60;99.90
2158;DHT22;41972;48.774;9.282;2023-06-14T16:04:42;24.00;99.90